Time;durP1;ratioP1;P1;durP2;ratioP2;P2;SDS_P1;SDS_P2;PMS_P1;PMS_P2;Temp;Humidity;BMP_temperature;BMP_pressure;BME280_temperature;BME280_humidity;BME280_pressure;Samples;Min_cycle;Max_cycle;Signal;HPM_P1;HPM_P2
2021/03/08 00:02:04;;;;;;;11.10;2.73;;;;;;;-144.99;96.87;52391.03;4981591;28;20726;-72
2021/03/08 00:04:30;;;;;;;8.77;2.73;;;;;;;-144.99;96.06;52403.25;4991300;28;20204;-73
2021/03/08 00:06:57;;;;;;;8.57;2.70;;;;;;;-144.99;96.14;52399.19;4985489;28;20634;-73
2021/03/08 00:09:23;;;;;;;17.17;3.40;;;;;;;-144.99;95.25;52391.03;4986625;28;21001;-74
2021/03/08 00:11:49;;;;;;;5.90;1.77;;;;;;;-144.99;94.60;52403.25;4983881;28;20760;-72
2021/03/08 00:14:15;;;;;;;10.27;2.70;;;;;;;-144.99;94.20;52380.84;4982661;28;20647;-72
2021/03/08 00:16:42;;;;;;;4.03;2.43;;;;;;;-144.99;94.20;52386.94;4988116;28;20665;-73
2021/03/08 00:19:08;;;;;;;10.33;3.30;;;;;;;-144.99;93.42;52370.63;4987545;28;20637;-73
2021/03/08 00:21:34;;;;;;;18.87;6.27;;;;;;;-144.99;93.17;52399.19;4986690;28;20646;-72
2021/03/08 00:24:01;;;;;;;9.27;3.27;;;;;;;-144.99;92.75;52370.63;4990146;28;20696;-72
2021/03/08 00:26:27;;;;;;;4.70;1.93;;;;;;;-144.99;92.89;52391.03;4987955;28;20635;-73
2021/03/08 00:28:53;;;;;;;3.90;2.60;;;;;;;-144.99;93.10;52415.47;4986631;28;20645;-72
2021/03/08 00:31:19;;;;;;;7.03;2.93;;;;;;;-144.99;93.01;52378.78;4988148;28;21234;-72
2021/03/08 00:33:45;;;;;;;9.67;2.70;;;;;;;-144.99;93.04;52405.28;4985486;28;20722;-73
2021/03/08 00:36:11;;;;;;;8.50;3.93;;;;;;;-144.99;93.01;52403.25;4986118;28;20318;-73
2021/03/08 00:38:37;;;;;;;8.67;3.17;;;;;;;-144.99;92.86;52374.72;4988679;28;20618;-74
2021/03/08 00:41:04;;;;;;;10.90;2.80;;;;;;;-144.99;92.85;52409.38;4987253;28;20692;-74
2021/03/08 00:43:30;;;;;;;12.80;3.00;;;;;;;-144.99;92.91;52348.22;4985134;28;20637;-73
2021/03/08 00:45:57;;;;;;;5.27;1.80;;;;;;;-144.99;92.91;52380.84;4985089;28;20626;-74
2021/03/08 00:48:23;;;;;;;11.93;2.67;;;;;;;-144.99;92.66;52382.88;4987066;28;20218;-74
2021/03/08 00:50:49;;;;;;;3.13;1.67;;;;;;;-144.99;92.37;52403.25;4984597;28;20725;-73
2021/03/08 00:53:15;;;;;;;7.53;2.57;;;;;;;-144.99;92.29;52391.03;4984161;28;20216;-73
2021/03/08 00:55:41;;;;;;;8.73;2.63;;;;;;;-144.99;92.16;52413.44;4986815;28;20657;-74
2021/03/08 00:58:08;;;;;;;4.90;2.10;;;;;;;-144.99;92.40;52401.22;4988491;28;20657;-74
2021/03/08 01:00:34;;;;;;;8.53;2.67;;;;;;;-144.99;92.30;52423.63;4986793;28;20673;-75
2021/03/08 01:03:00;;;;;;;10.80;2.37;;;;;;;-144.99;92.47;52403.25;4988701;28;20681;-75
2021/03/08 01:05:26;;;;;;;8.00;2.40;;;;;;;-144.99;92.87;52388.97;4984062;28;20635;-75
2021/03/08 01:07:52;;;;;;;12.73;3.03;;;;;;;-144.99;92.98;52399.19;4987282;28;20639;-75
2021/03/08 01:10:20;;;;;;;10.63;3.00;;;;;;;-144.99;93.03;52399.19;4987635;28;21321;-75
2021/03/08 01:12:47;;;;;;;10.33;2.57;;;;;;;-144.99;93.05;52386.94;4982682;28;20783;-75
2021/03/08 01:15:15;;;;;;;4.37;2.03;;;;;;;-144.99;93.12;52401.22;4983077;28;20678;-75
2021/03/08 01:17:41;;;;;;;10.63;1.83;;;;;;;-144.99;93.29;52437.91;5031645;23;20816;-78
2021/03/08 01:20:09;;;;;;;9.37;2.33;;;;;;;-144.99;93.38;52374.72;5028809;28;20594;-77
2021/03/08 01:22:36;;;;;;;13.00;3.37;;;;;;;-144.99;93.45;52399.19;5029601;28;20615;-77
2021/03/08 01:25:06;;;;;;;5.13;2.03;;;;;;;-144.99;93.72;52384.91;5027396;28;20645;-77
2021/03/08 01:27:32;;;;;;;8.00;2.20;;;;;;;-144.99;93.76;52384.91;5009077;28;20673;-74
2021/03/08 01:29:58;;;;;;;13.30;3.33;;;;;;;-144.99;93.89;52421.59;4990120;28;20723;-76
2021/03/08 01:32:25;;;;;;;7.37;6.40;;;;;;;-144.99;93.91;52401.22;4985820;28;20687;-76
2021/03/08 01:34:51;;;;;;;13.00;3.13;;;;;;;-144.99;94.13;52395.09;4985560;28;20719;-74
2021/03/08 01:37:17;;;;;;;9.63;3.03;;;;;;;-144.99;94.15;52393.06;4988792;28;20685;-75
2021/03/08 01:39:43;;;;;;;9.70;3.33;;;;;;;-144.99;94.17;52376.75;4985903;28;20302;-74
2021/03/08 01:42:09;;;;;;;6.67;2.23;;;;;;;-144.99;94.28;52403.25;4993188;28;20645;-75
2021/03/08 01:44:35;;;;;;;9.43;2.70;;;;;;;-144.99;94.36;52386.94;4985490;28;20634;-75
2021/03/08 01:47:01;;;;;;;5.03;2.40;;;;;;;-144.99;94.29;52376.75;4987925;28;20654;-74
2021/03/08 01:49:28;;;;;;;10.47;2.97;;;;;;;-144.99;94.26;52427.72;4989324;28;21020;-74
2021/03/08 01:51:54;;;;;;;13.37;3.00;;;;;;;-144.99;94.32;52423.63;4978812;28;21042;-75
2021/03/08 01:54:21;;;;;;;11.13;2.57;;;;;;;-144.99;94.41;52395.09;4999218;28;20634;-74
2021/03/08 01:56:47;;;;;;;8.67;2.67;;;;;;;-144.99;94.26;52433.81;5001241;28;20609;-75
2021/03/08 01:59:13;;;;;;;9.03;2.43;;;;;;;-144.99;94.42;52413.44;4641560;28;10000063;-75
2021/03/08 02:01:39;;;;;;;7.00;2.53;;;;;;;-144.99;94.39;52378.78;5004965;28;20241;-77
2021/03/08 02:04:05;;;;;;;9.70;2.97;;;;;;;-144.99;94.43;52439.94;5001026;28;20200;-75
2021/03/08 02:06:32;;;;;;;7.83;2.60;;;;;;;-144.99;94.51;52407.31;4989079;28;20662;-76
2021/03/08 02:08:58;;;;;;;7.90;2.87;;;;;;;-144.99;94.61;52403.25;4989065;28;20724;-74
2021/03/08 02:11:24;;;;;;;6.87;2.87;;;;;;;-144.99;94.63;52431.78;4991331;28;21316;-76
2021/03/08 02:14:07;;;;;;;9.77;2.83;;;;;;;-144.99;94.61;52386.94;4993789;28;20733;-77
2021/03/08 02:16:41;;;;;;;13.50;3.30;;;;;;;-144.99;94.67;52403.25;4999776;28;20204;-76
2021/03/08 02:19:28;;;;;;;5.90;2.77;;;;;;;-144.99;95.08;52397.13;4995810;28;20638;-76
2021/03/08 02:22:16;;;;;;;18.63;5.90;;;;;;;-144.99;95.45;52405.28;4992069;28;20630;-76
2021/03/08 02:25:12;;;;;;;11.37;2.93;;;;;;;-144.99;95.49;52399.19;4988776;28;20696;-76
2021/03/08 02:28:26;;;;;;;8.03;3.30;;;;;;;-144.99;95.69;52419.56;4987505;28;20677;-76
2021/03/08 02:30:54;;;;;;;12.27;2.93;;;;;;;-144.99;95.89;52415.47;4983044;28;20680;-76
2021/03/08 02:33:26;;;;;;;8.77;2.37;;;;;;;-144.99;95.95;52399.19;4991270;28;20664;-75
2021/03/08 02:35:55;;;;;;;7.37;2.37;;;;;;;-144.99;96.02;52395.09;4986206;28;21064;-76
2021/03/08 02:38:26;;;;;;;12.53;2.60;;;;;;;-144.99;96.03;52415.47;4991765;28;20664;-76
2021/03/08 02:40:59;;;;;;;4.03;2.27;;;;;;;-144.99;96.00;52407.31;4990881;28;20630;-75
2021/03/08 02:43:31;;;;;;;9.70;2.87;;;;;;;-144.99;95.97;52452.16;4982404;28;20642;-76
2021/03/08 02:45:59;;;;;;;8.07;3.23;;;;;;;-144.99;96.12;52423.63;4989429;28;21055;-77
2021/03/08 02:48:27;;;;;;;8.70;2.93;;;;;;;-144.99;96.62;52419.56;4988095;28;20662;-76
2021/03/08 02:50:56;;;;;;;6.77;3.23;;;;;;;-144.99;96.61;52413.44;4993849;28;20635;-77
2021/03/08 02:53:24;;;;;;;10.83;3.23;;;;;;;-144.99;96.69;52382.88;4992506;28;20626;-77
2021/03/08 02:55:54;;;;;;;8.37;2.97;;;;;;;-144.99;96.88;52395.09;4986555;28;21243;-77
2021/03/08 02:58:23;;;;;;;4.80;1.83;;;;;;;-144.99;96.95;52395.09;4994380;28;20818;-77
2021/03/08 03:00:50;;;;;;;10.23;4.00;;;;;;;-144.99;97.01;52382.88;4989725;28;20677;-78
2021/03/08 03:03:20;;;;;;;8.47;3.50;;;;;;;-144.99;97.04;52403.25;4991631;28;21084;-78
2021/03/08 03:05:47;;;;;;;14.53;4.27;;;;;;;-144.99;97.03;52378.78;4993613;28;20659;-77
2021/03/08 03:08:15;;;;;;;12.30;3.10;;;;;;;-144.99;97.16;52415.47;4989728;28;20665;-75
2021/03/08 03:10:41;;;;;;;6.33;2.30;;;;;;;-144.99;97.38;52409.38;4992058;28;20653;-77
2021/03/08 03:13:09;;;;;;;7.93;3.20;;;;;;;-144.99;97.23;52384.91;4991657;28;20631;-76
2021/03/08 03:15:38;;;;;;;10.40;3.03;;;;;;;-144.99;97.24;52391.03;4990012;28;20707;-76
2021/03/08 03:18:06;;;;;;;8.87;3.97;;;;;;;-144.99;97.41;52376.75;4986044;28;21263;-77
2021/03/08 03:20:35;;;;;;;9.10;2.83;;;;;;;-144.99;97.52;52388.97;4990936;28;20627;-78
2021/03/08 03:23:02;;;;;;;5.10;2.87;;;;;;;-144.99;97.49;52419.56;4994079;28;20645;-77
2021/03/08 03:25:32;;;;;;;8.63;3.67;;;;;;;-144.99;97.63;52439.94;4991405;28;20677;-77
2021/03/08 03:28:00;;;;;;;8.43;3.03;;;;;;;-144.99;97.85;52407.31;4990069;28;20673;-76
2021/03/08 03:30:29;;;;;;;8.27;2.87;;;;;;;-144.99;97.78;52419.56;4991054;28;20635;-76
2021/03/08 03:32:55;;;;;;;10.07;3.07;;;;;;;-144.99;97.97;52382.88;4991251;28;20631;-77
2021/03/08 03:35:26;;;;;;;6.40;3.13;;;;;;;-144.99;98.16;52415.47;4994903;28;20669;-77
2021/03/08 03:37:55;;;;;;;7.63;3.10;;;;;;;-144.99;98.15;52366.56;4982975;28;20675;-75
2021/03/08 03:40:23;;;;;;;12.10;3.33;;;;;;;-144.99;98.12;52421.59;4987940;28;20672;-75
2021/03/08 03:42:51;;;;;;;8.00;3.37;;;;;;;-144.99;98.25;52409.38;4991026;28;20618;-75
2021/03/08 03:45:19;;;;;;;11.10;4.77;;;;;;;-144.99;98.20;52427.72;4990430;28;20698;-76
2021/03/08 03:47:46;;;;;;;4.30;2.73;;;;;;;-144.99;98.16;52380.84;4991108;28;20651;-76
2021/03/08 03:50:15;;;;;;;12.03;3.97;;;;;;;-144.99;98.07;52448.09;4986230;28;20646;-77
2021/03/08 03:52:41;;;;;;;9.33;3.60;;;;;;;-144.99;98.04;52395.09;4990842;28;20649;-75
2021/03/08 03:55:11;;;;;;;9.50;5.47;;;;;;;-144.99;97.87;52423.63;4991258;28;21172;-75
2021/03/08 03:57:46;;;;;;;11.17;3.83;;;;;;;-144.99;98.05;52415.47;4991932;28;20712;-76
2021/03/08 04:00:14;;;;;;;7.93;3.80;;;;;;;-144.99;98.04;52419.56;4986683;28;20658;-75
2021/03/08 04:02:47;;;;;;;11.23;3.47;;;;;;;-144.99;97.97;52403.25;4990741;28;20619;-74
2021/03/08 04:05:18;;;;;;;6.43;3.00;;;;;;;-144.99;97.96;52391.03;4989764;28;21126;-74
2021/03/08 04:07:47;;;;;;;8.30;3.23;;;;;;;-144.99;98.18;52415.47;4988044;28;20642;-75
2021/03/08 04:10:14;;;;;;;9.37;3.50;;;;;;;-144.99;97.98;52407.31;4986771;28;20634;-75
2021/03/08 04:12:46;;;;;;;9.07;3.70;;;;;;;-144.99;98.03;52395.09;4989606;28;20809;-76
2021/03/08 04:15:15;;;;;;;6.40;2.63;;;;;;;-144.99;97.91;52415.47;4990840;28;20636;-76
2021/03/08 04:17:42;;;;;;;9.73;3.33;;;;;;;-144.99;98.08;52403.25;4989693;28;20774;-76
2021/03/08 04:20:13;;;;;;;6.13;2.73;;;;;;;-144.99;98.02;52415.47;4990411;28;20631;-76
2021/03/08 04:22:40;;;;;;;5.87;2.90;;;;;;;-144.99;98.26;52399.19;4994686;28;20628;-77
2021/03/08 04:25:09;;;;;;;9.80;4.37;;;;;;;-144.99;98.35;52427.72;4991791;28;20662;-76
2021/03/08 04:27:36;;;;;;;9.03;5.23;;;;;;;-144.99;98.34;52439.94;4989376;28;20666;-75
2021/03/08 04:30:03;;;;;;;14.60;3.63;;;;;;;-144.99;98.33;52399.19;4990022;28;20648;-74
2021/03/08 04:32:29;;;;;;;15.53;3.83;;;;;;;-144.99;98.40;52415.47;4985507;28;20638;-75
2021/03/08 04:34:55;;;;;;;8.37;3.33;;;;;;;-144.99;98.28;52427.72;4989914;28;20724;-75
2021/03/08 04:37:22;;;;;;;9.47;3.37;;;;;;;-144.99;98.39;52448.09;4991392;28;20733;-76
2021/03/08 04:39:50;;;;;;;9.40;3.10;;;;;;;-144.99;98.21;52417.53;4989555;28;20402;-75
2021/03/08 04:42:17;;;;;;;12.30;3.83;;;;;;;-144.99;98.11;52439.94;4987357;28;20627;-75
2021/03/08 04:44:46;;;;;;;7.97;3.47;;;;;;;-144.99;98.33;52429.75;4989797;28;21012;-76
2021/03/08 04:47:16;;;;;;;7.63;2.60;;;;;;;-144.99;98.35;52444.03;4990301;28;20650;-77
2021/03/08 04:49:43;;;;;;;7.10;2.80;;;;;;;-144.99;98.24;52446.06;4990241;28;20638;-76
2021/03/08 04:52:12;;;;;;;11.07;3.57;;;;;;;-144.99;98.32;52415.47;4988207;28;20638;-75
2021/03/08 04:54:42;;;;;;;6.00;2.90;;;;;;;-144.99;98.23;52439.94;4988558;28;20717;-75
2021/03/08 04:57:10;;;;;;;5.20;3.10;;;;;;;-144.99;98.27;52399.19;4992794;28;20692;-76
2021/03/08 04:59:36;;;;;;;7.77;3.33;;;;;;;-144.99;98.24;52397.13;4993285;28;20615;-76
2021/03/08 05:02:03;;;;;;;7.87;3.17;;;;;;;-144.99;98.32;52423.63;4991764;28;20630;-77
2021/03/08 05:04:31;;;;;;;11.30;3.57;;;;;;;-144.99;98.32;52464.41;4993081;28;20625;-76
2021/03/08 05:06:58;;;;;;;8.17;3.50;;;;;;;-144.99;98.32;52415.47;4991287;28;20969;-76
2021/03/08 05:09:25;;;;;;;4.80;2.30;;;;;;;-144.99;98.16;52419.56;4993704;28;20638;-78
2021/03/08 05:11:54;;;;;;;8.13;3.20;;;;;;;-144.99;98.05;52423.63;4992623;28;21258;-78
2021/03/08 05:14:22;;;;;;;5.30;3.23;;;;;;;-144.99;98.13;52395.09;4991087;28;20626;-76
2021/03/08 05:16:50;;;;;;;8.80;3.40;;;;;;;-144.99;98.08;52421.59;4992958;28;21196;-76
2021/03/08 05:19:19;;;;;;;13.27;6.70;;;;;;;-144.99;98.01;52472.56;4991438;28;20657;-77
2021/03/08 05:21:47;;;;;;;21.10;8.13;;;;;;;-144.99;98.11;52403.25;4996117;28;20642;-77
2021/03/08 05:24:13;;;;;;;28.97;9.60;;;;;;;-144.99;98.22;52395.09;4997014;28;21155;-77
2021/03/08 05:26:39;;;;;;;17.07;9.07;;;;;;;-144.99;98.16;52376.75;4994982;28;20658;-76
2021/03/08 05:29:07;;;;;;;20.10;6.80;;;;;;;-144.99;98.26;52431.78;4992570;28;20655;-78
2021/03/08 05:31:38;;;;;;;15.03;7.67;;;;;;;-144.99;98.23;52427.72;4992811;28;20625;-77
2021/03/08 05:34:07;;;;;;;20.10;8.40;;;;;;;-144.99;98.00;52423.63;4993654;28;20662;-76
2021/03/08 05:36:38;;;;;;;16.87;8.70;;;;;;;-144.99;97.99;52419.56;4996516;28;20626;-76
2021/03/08 05:39:05;;;;;;;20.20;8.27;;;;;;;-144.99;98.04;52411.41;4992756;28;20680;-76
2021/03/08 05:41:33;;;;;;;16.50;8.60;;;;;;;-144.99;98.11;52415.47;4998103;28;20858;-76
2021/03/08 05:44:04;;;;;;;15.13;7.87;;;;;;;-144.99;98.00;52395.09;4996421;28;20645;-76
2021/03/08 05:46:55;;;;;;;22.23;8.70;;;;;;;-144.99;97.96;52401.22;4988005;28;20724;-76
2021/03/08 05:49:34;;;;;;;12.73;7.23;;;;;;;-144.99;98.04;52417.53;4991866;28;20603;-75
2021/03/08 05:52:44;;;;;;;14.50;7.63;;;;;;;-144.99;97.94;52427.72;4993053;28;20614;-75
2021/03/08 05:55:47;;;;;;;19.73;7.43;;;;;;;-144.99;97.91;52399.19;4977304;28;20646;-75
2021/03/08 05:58:42;;;;;;;12.50;6.90;;;;;;;-144.99;97.95;52382.88;4989183;28;21307;-75
2021/03/08 06:01:28;;;;;;;13.97;7.40;;;;;;;-144.99;97.78;52415.47;4979366;28;20649;-76
2021/03/08 06:04:15;;;;;;;14.33;6.27;;;;;;;-144.99;97.84;52427.72;4985318;28;20637;-76
2021/03/08 06:07:02;;;;;;;12.10;4.80;;;;;;;-144.99;97.85;52435.88;4987719;28;20654;-77
2021/03/08 06:09:41;;;;;;;14.03;5.70;;;;;;;-144.99;97.85;52407.31;4992122;28;21187;-77
2021/03/08 06:12:12;;;;;;;12.87;5.13;;;;;;;-144.99;97.99;52448.09;4991719;28;20684;-75
2021/03/08 06:14:41;;;;;;;15.57;4.77;;;;;;;-144.99;98.04;52403.25;4993104;28;20625;-74
2021/03/08 06:17:12;;;;;;;10.37;4.73;;;;;;;-144.99;98.05;52435.88;4990496;28;20676;-77
2021/03/08 06:19:39;;;;;;;14.23;5.40;;;;;;;-144.99;98.01;52415.47;4990942;28;20625;-74
2021/03/08 06:22:07;;;;;;;9.27;4.00;;;;;;;-144.99;98.16;52354.34;4996780;28;20623;-75
2021/03/08 06:24:36;;;;;;;11.23;5.03;;;;;;;-144.99;98.09;52452.16;4999868;28;20652;-76
2021/03/08 06:27:03;;;;;;;14.07;5.13;;;;;;;-144.99;98.12;52413.44;4993322;28;20674;-74
2021/03/08 06:29:31;;;;;;;11.77;6.07;;;;;;;-144.99;98.05;52407.31;4993394;28;20642;-76
2021/03/08 06:31:58;;;;;;;8.47;4.40;;;;;;;-144.99;98.13;52419.56;4992865;28;20635;-76
2021/03/08 06:34:24;;;;;;;15.83;3.87;;;;;;;-144.99;98.04;52419.56;4991176;28;20674;-75
2021/03/08 06:36:52;;;;;;;6.97;3.57;;;;;;;-144.99;98.05;52427.72;4991628;28;21080;-74
2021/03/08 06:39:18;;;;;;;7.97;4.27;;;;;;;-144.99;98.08;52427.72;4993655;28;20623;-76
2021/03/08 06:41:45;;;;;;;6.30;3.00;;;;;;;-144.99;97.78;52382.88;4992159;28;21053;-75
2021/03/08 06:44:12;;;;;;;11.97;3.90;;;;;;;-144.99;97.67;52431.78;4987850;28;20630;-76
2021/03/08 06:46:38;;;;;;;5.20;2.57;;;;;;;-144.99;97.66;52423.63;4989571;28;21080;-75
2021/03/08 06:49:04;;;;;;;12.90;3.67;;;;;;;-144.99;97.58;52395.09;4992747;28;20653;-75
2021/03/08 06:51:30;;;;;;;7.70;3.50;;;;;;;-144.99;97.67;52386.94;4994653;28;20634;-75
2021/03/08 06:53:57;;;;;;;7.30;3.30;;;;;;;-144.99;97.67;52354.34;4990676;28;20653;-76
2021/03/08 06:56:24;;;;;;;6.07;3.57;;;;;;;-144.99;97.52;52386.94;4993421;28;20644;-77
2021/03/08 06:59:13;;;;;;;10.83;3.80;;;;;;;-144.99;97.47;52407.31;4983846;28;20700;-77
2021/03/08 07:01:40;;;;;;;10.80;4.50;;;;;;;-144.99;97.50;52393.06;4986128;28;20705;-77
2021/03/08 07:04:12;;;;;;;5.53;2.87;;;;;;;-144.99;97.39;52378.78;4992332;28;20634;-75
2021/03/08 07:06:38;;;;;;;7.33;4.17;;;;;;;-144.99;97.64;52366.56;4985215;28;20662;-76
2021/03/08 07:09:05;;;;;;;5.40;3.83;;;;;;;-144.99;97.72;52378.78;4990372;28;20671;-75
2021/03/08 07:11:32;;;;;;;11.73;3.33;;;;;;;-144.99;97.68;52395.09;4989841;28;20634;-75
2021/03/08 07:13:58;;;;;;;7.47;4.43;;;;;;;-144.99;97.24;52378.78;4989396;28;20630;-77
2021/03/08 07:16:36;;;;;;;8.67;3.43;;;;;;;-144.99;96.54;52415.47;4981292;28;20644;-76
2021/03/08 07:19:02;;;;;;;5.73;3.20;;;;;;;-144.99;95.86;52386.94;4990514;28;20684;-75
2021/03/08 07:21:29;;;;;;;9.53;3.30;;;;;;;-144.99;95.35;52362.50;4989007;28;20648;-80
2021/03/08 07:24:08;;;;;;;7.77;3.73;;;;;;;-144.99;94.70;52386.94;4993817;28;20635;-77
2021/03/08 07:26:34;;;;;;;8.20;3.63;;;;;;;-144.99;94.24;52407.31;4992766;28;20734;-78
2021/03/08 07:29:12;;;;;;;7.93;4.33;;;;;;;-144.99;93.76;52378.78;4999661;28;20713;-78
2021/03/08 07:31:40;;;;;;;4.63;2.90;;;;;;;-144.99;92.86;52374.72;4998791;28;20630;-78
2021/03/08 07:34:09;;;;;;;5.33;2.20;;;;;;;-144.99;91.46;52309.50;4999547;28;20615;-78
2021/03/08 07:36:36;;;;;;;7.50;3.10;;;;;;;-144.99;90.42;52391.03;4992366;28;20635;-80
2021/03/08 07:39:10;;;;;;;4.00;1.60;;;;;;;-144.99;89.60;52382.88;4995218;28;20648;-77
2021/03/08 07:41:36;;;;;;;6.23;2.10;;;;;;;-144.99;88.00;52346.19;4998779;28;21175;-79
2021/03/08 07:44:07;;;;;;;7.10;2.50;;;;;;;-144.99;87.22;52395.09;5002904;28;20643;-79
2021/03/08 07:46:35;;;;;;;5.43;2.30;;;;;;;-144.99;86.24;52403.25;4995800;28;20654;-77
2021/03/08 07:49:05;;;;;;;9.27;3.10;;;;;;;-144.99;85.20;52336.00;4990004;28;20662;-79
2021/03/08 07:51:32;;;;;;;6.60;2.73;;;;;;;-144.99;83.89;52388.97;4991699;28;21046;-78
2021/03/08 07:53:59;;;;;;;7.70;2.43;;;;;;;-144.99;83.22;52376.75;4988164;28;21206;-77
2021/03/08 07:56:29;;;;;;;7.63;2.33;;;;;;;-144.99;82.52;52395.09;4973460;28;20626;-76
2021/03/08 07:58:55;;;;;;;8.57;2.13;;;;;;;-144.99;81.62;52333.94;4990396;28;20654;-76
2021/03/08 08:01:22;;;;;;;8.37;2.23;;;;;;;-144.99;81.81;52344.16;4987342;28;20856;-71
2021/03/08 08:03:49;;;;;;;7.00;2.47;;;;;;;-144.99;83.44;52333.94;4988128;28;21316;-72
2021/03/08 08:06:20;;;;;;;10.97;3.27;;;;;;;-144.99;82.30;52378.78;4988812;28;20647;-72
2021/03/08 08:08:48;;;;;;;10.17;1.80;;;;;;;-144.99;83.15;52329.88;4988780;28;20684;-72
2021/03/08 08:11:16;;;;;;;6.00;2.33;;;;;;;-144.99;82.55;52340.06;4989165;28;20682;-72
2021/03/08 08:13:45;;;;;;;6.87;2.33;;;;;;;-144.99;83.07;52342.09;4988323;28;20623;-73
2021/03/08 08:16:12;;;;;;;4.60;2.43;;;;;;;-144.99;81.81;52356.38;4988667;28;20631;-74
2021/03/08 08:18:40;;;;;;;4.17;1.97;;;;;;;-144.99;81.79;52364.53;4988399;28;20713;-72
2021/03/08 08:21:09;;;;;;;5.87;3.30;;;;;;;-144.99;80.03;52346.19;4979809;28;20632;-72
2021/03/08 08:23:40;;;;;;;4.50;2.33;;;;;;;-144.99;78.70;52358.41;4989110;28;20617;-72
2021/03/08 08:26:09;;;;;;;6.43;2.33;;;;;;;-144.99;77.41;52366.56;4991950;28;20672;-72
2021/03/08 08:28:37;;;;;;;5.40;2.47;;;;;;;-144.99;78.09;52344.16;4991958;28;20702;-71
2021/03/08 08:31:03;;;;;;;6.37;1.60;;;;;;;-144.99;76.90;52309.50;4988198;28;20562;-72
2021/03/08 08:33:31;;;;;;;6.80;2.70;;;;;;;-144.99;75.36;52325.81;4989583;28;20218;-76
2021/03/08 08:36:18;;;;;;;4.20;2.10;;;;;;;-144.99;71.53;52338.03;4989025;28;20600;-75
2021/03/08 08:39:14;;;;;;;6.97;1.73;;;;;;;-144.99;69.14;52317.66;4991077;28;20222;-76
2021/03/08 08:41:40;;;;;;;5.50;2.00;;;;;;;-144.99;66.86;52327.84;4990245;28;20262;-76
2021/03/08 08:44:37;;;;;;;5.13;2.13;;;;;;;-144.99;66.05;52333.94;4988538;28;20196;-75
2021/03/08 08:47:22;;;;;;;5.17;1.87;;;;;;;-144.99;65.43;52321.72;4991291;28;20227;-75
2021/03/08 08:49:49;;;;;;;5.03;3.77;;;;;;;-144.99;64.05;52297.25;4994396;28;20214;-76
2021/03/08 08:52:16;;;;;;;11.17;3.80;;;;;;;-144.99;63.48;52301.34;4993216;28;20264;-78
2021/03/08 08:54:53;;;;;;;6.70;4.00;;;;;;;-144.99;62.48;52321.72;4995507;28;20551;-74
2021/03/08 08:57:20;;;;;;;3.40;1.83;;;;;;;-144.99;61.66;52329.88;4991557;28;20219;-76
2021/03/08 09:00:07;;;;;;;8.70;1.90;;;;;;;-144.99;57.93;52329.88;4993523;28;20230;-75
2021/03/08 09:02:33;;;;;;;2.83;2.00;;;;;;;-144.99;58.02;52321.72;4991722;28;20203;-76
2021/03/08 09:05:00;;;;;;;5.60;2.43;;;;;;;-144.99;58.20;52342.09;4992998;28;20537;-78
2021/03/08 09:07:27;;;;;;;4.03;1.53;;;;;;;-144.99;58.92;52342.09;4988942;28;20232;-75
2021/03/08 09:09:56;;;;;;;6.50;1.80;;;;;;;-144.99;58.78;52307.47;4994459;28;20282;-75
2021/03/08 09:12:28;;;;;;;3.40;1.67;;;;;;;-144.99;58.03;52301.34;4993082;28;20202;-77
2021/03/08 09:14:55;;;;;;;4.73;2.23;;;;;;;-144.99;56.73;52285.03;4994354;28;20271;-77
2021/03/08 09:17:24;;;;;;;6.10;2.13;;;;;;;-144.99;55.94;52313.56;4992594;28;20322;-78
2021/03/08 09:20:11;;;;;;;3.23;1.30;;;;;;;-144.99;54.32;52313.56;4992686;28;20207;-77
2021/03/08 09:22:44;;;;;;;6.60;1.83;;;;;;;-144.99;53.89;52305.41;4992000;28;20199;-76
2021/03/08 09:25:29;;;;;;;4.67;3.50;;;;;;;-144.99;52.97;52317.66;4993460;28;20750;-75
2021/03/08 09:28:16;;;;;;;8.43;2.20;;;;;;;-144.99;51.61;52295.22;4985215;28;20254;-77
2021/03/08 09:30:45;;;;;;;4.60;1.87;;;;;;;-144.99;51.70;52268.72;4995562;28;20266;-76
2021/03/08 09:33:13;;;;;;;5.93;2.00;;;;;;;-144.99;51.51;52305.41;5003176;28;20199;-75
2021/03/08 09:35:42;;;;;;;6.20;3.27;;;;;;;-144.99;51.21;52333.94;5003614;28;20218;-77
2021/03/08 09:38:11;;;;;;;4.30;1.77;;;;;;;-144.99;50.44;52309.50;5002305;28;20370;-75
2021/03/08 09:40:39;;;;;;;5.13;2.60;;;;;;;-144.99;50.18;52313.56;4995645;28;20231;-75
2021/03/08 09:43:23;;;;;;;8.50;1.60;;;;;;;-144.99;48.92;52313.56;4987876;28;20254;-75
2021/03/08 09:45:58;;;;;;;9.30;1.90;;;;;;;-144.99;48.84;52311.53;4988209;28;20285;-76
2021/03/08 09:48:25;;;;;;;9.40;1.67;;;;;;;-144.99;48.17;52272.81;4986653;28;20234;-74
2021/03/08 09:50:51;;;;;;;3.80;1.87;;;;;;;-144.99;47.30;52317.66;4983759;28;20678;-77
2021/03/08 09:53:18;;;;;;;7.87;2.00;;;;;;;-144.99;47.01;52254.47;4991304;28;20266;-76
2021/03/08 09:55:45;;;;;;;8.37;2.93;;;;;;;-144.99;46.35;52260.56;4989092;28;20227;-78
2021/03/08 09:58:13;;;;;;;3.53;1.30;;;;;;;-144.99;46.48;52293.19;4987204;28;20224;-77
2021/03/08 10:00:40;;;;;;;3.63;2.27;;;;;;;-144.99;45.19;52293.19;4989319;28;20637;-77
2021/03/08 10:03:09;;;;;;;3.47;1.53;;;;;;;-144.99;44.13;52254.47;4985522;28;20252;-78
2021/03/08 10:05:43;;;;;;;4.37;1.27;;;;;;;-144.99;43.85;52262.63;4985370;28;20247;-77
2021/03/08 10:08:10;;;;;;;4.90;1.43;;;;;;;-144.99;42.73;52256.50;4985055;28;20230;-75
2021/03/08 10:10:41;;;;;;;5.03;1.50;;;;;;;-144.99;41.85;52270.78;4984086;28;20279;-74
2021/03/08 10:13:09;;;;;;;5.47;1.53;;;;;;;-144.99;40.88;52236.13;4986836;28;20228;-77
2021/03/08 10:15:43;;;;;;;3.20;1.10;;;;;;;-144.99;40.01;52254.47;4984537;28;20215;-78
2021/03/08 10:18:11;;;;;;;5.40;3.13;;;;;;;-144.99;39.10;52232.03;4985200;28;20231;-78
2021/03/08 10:20:46;;;;;;;9.97;2.33;;;;;;;-144.99;38.56;52170.91;4983732;28;20264;-77
2021/03/08 10:23:20;;;;;;;8.33;2.87;;;;;;;-144.99;37.65;52215.75;4984393;28;20213;-75
2021/03/08 10:25:46;;;;;;;4.87;1.77;;;;;;;-144.99;36.88;52230.00;4984042;28;20222;-77
2021/03/08 10:28:14;;;;;;;3.97;1.80;;;;;;;-144.99;36.28;52219.81;4989636;28;20234;-74
2021/03/08 10:30:40;;;;;;;4.33;1.97;;;;;;;-144.99;34.94;52164.78;4982200;28;20222;-76
2021/03/08 10:33:11;;;;;;;7.10;2.23;;;;;;;-144.99;34.42;52191.28;4984235;28;20262;-75
2021/03/08 10:35:40;;;;;;;2.50;1.37;;;;;;;-144.99;32.39;52158.66;4984581;28;20266;-73
2021/03/08 10:38:07;;;;;;;3.87;1.60;;;;;;;-144.99;31.85;52168.84;4982030;28;20228;-76
2021/03/08 10:40:33;;;;;;;2.97;1.57;;;;;;;-144.99;30.75;52138.28;4982663;28;20215;-73
2021/03/08 10:43:00;;;;;;;3.50;1.33;;;;;;;-144.99;30.88;52187.19;4985169;28;20319;-74
2021/03/08 10:45:30;;;;;;;3.43;0.93;;;;;;;-144.99;30.75;52148.47;4987420;28;20207;-75
2021/03/08 10:48:10;;;;;;;2.20;1.23;;;;;;;-144.99;30.76;52154.59;4991262;28;20235;-76
2021/03/08 10:50:42;;;;;;;7.07;2.10;;;;;;;-144.99;29.98;52093.44;4986252;28;20198;-75
2021/03/08 10:53:08;;;;;;;6.87;3.70;;;;;;;-144.99;29.59;52121.97;4987233;28;20208;-74
2021/03/08 10:55:35;;;;;;;12.40;2.63;;;;;;;-144.99;29.10;52073.06;4989691;28;20208;-74
2021/03/08 10:58:02;;;;;;;7.37;1.97;;;;;;;-144.99;28.91;52085.31;4982370;28;20591;-75
2021/03/08 11:00:29;;;;;;;8.27;2.17;;;;;;;-144.99;28.69;52069.00;4985358;28;20209;-72
2021/03/08 11:02:56;;;;;;;6.00;1.77;;;;;;;-144.99;28.38;52036.38;4988729;28;20195;-78
2021/03/08 11:05:25;;;;;;;4.87;1.73;;;;;;;-144.99;27.73;52030.28;4986254;28;20268;-77
2021/03/08 11:07:51;;;;;;;3.03;1.33;;;;;;;-144.99;26.64;52052.69;4982608;28;20233;-74
2021/03/08 11:10:30;;;;;;;3.77;1.83;;;;;;;-144.99;26.55;52064.91;4988953;28;20199;-75
2021/03/08 11:12:59;;;;;;;3.40;1.53;;;;;;;-144.99;26.41;52115.88;4985499;28;20686;-77
2021/03/08 11:15:25;;;;;;;3.83;1.60;;;;;;;-144.99;26.88;52036.38;4988187;28;20197;-77
2021/03/08 11:17:52;;;;;;;4.67;1.90;;;;;;;-144.99;26.01;52069.00;4987187;28;20289;-75
2021/03/08 11:20:22;;;;;;;6.20;2.67;;;;;;;-144.99;26.24;52064.91;4988744;28;20216;-76
2021/03/08 11:23:02;;;;;;;4.57;1.50;;;;;;;-144.99;25.25;52048.63;4992539;28;20289;-76
2021/03/08 11:25:34;;;;;;;8.43;2.47;;;;;;;-144.99;24.36;52056.78;4992308;28;20211;-76
2021/03/08 11:28:02;;;;;;;2.60;1.20;;;;;;;-144.99;23.73;52044.53;4995221;28;20230;-74